createdAt,value
2019-03-15T00:00:26.307Z,78.70
2019-03-15T00:01:35.093Z,79.10
2019-03-15T00:02:40.410Z,78.90
2019-03-15T00:03:46.153Z,78.80
2019-03-15T00:04:50.707Z,79.00
2019-03-15T00:06:08.521Z,79.00
2019-03-15T00:07:10.843Z,79.10
2019-03-15T00:08:20.914Z,79.10
2019-03-15T00:09:25.049Z,79.10
2019-03-15T00:10:30.827Z,79.10
2019-03-15T00:11:36.174Z,79.10
2019-03-15T00:12:43.172Z,79.10
2019-03-15T00:13:48.792Z,79.20
2019-03-15T00:14:54.089Z,79.40
2019-03-15T00:15:59.799Z,79.40
2019-03-15T00:17:07.242Z,79.70
2019-03-15T00:18:14.516Z,79.50
2019-03-15T00:19:18.782Z,79.60
2019-03-15T00:20:24.415Z,79.50
2019-03-15T00:21:33.376Z,79.60
2019-03-15T00:22:42.582Z,79.50
2019-03-15T00:23:46.708Z,79.50
2019-03-15T00:24:50.774Z,79.70
2019-03-15T00:25:58.463Z,79.70
2019-03-15T00:27:04.200Z,79.80
2019-03-15T00:28:17.905Z,79.80
2019-03-15T00:29:23.979Z,80.10
2019-03-15T00:30:28.327Z,80.10
2019-03-15T00:31:32.420Z,80.20
2019-03-15T00:32:39.141Z,80.20
2019-03-15T00:33:43.303Z,80.30
2019-03-15T00:34:51.285Z,80.50
2019-03-15T00:35:55.469Z,80.60
2019-03-15T00:37:01.250Z,80.80
2019-03-15T00:38:06.101Z,81.10
2019-03-15T00:39:10.204Z,81.10
2019-03-15T00:40:24.085Z,81.10
2019-03-15T00:41:31.616Z,81.20
2019-03-15T00:42:54.736Z,81.30
2019-03-15T00:44:09.400Z,81.30
2019-03-15T00:45:15.208Z,81.30
2019-03-15T00:46:24.964Z,81.30
2019-03-15T00:47:29.776Z,81.20
2019-03-15T00:48:37.143Z,81.10
2019-03-15T00:49:41.374Z,80.90
2019-03-15T00:50:45.532Z,80.80
2019-03-15T00:51:50.684Z,80.80
2019-03-15T00:52:54.839Z,80.90
2019-03-15T00:54:04.061Z,80.80
2019-03-15T00:55:08.498Z,80.80
2019-03-15T00:56:19.554Z,80.70
2019-03-15T00:57:23.667Z,80.80
2019-03-15T00:58:28.815Z,80.70
2019-03-15T00:59:33.961Z,80.80
2019-03-15T01:00:41.848Z,80.60
2019-03-15T01:01:49.343Z,81.40
2019-03-15T01:02:56.512Z,80.60
2019-03-15T01:04:03.734Z,80.70
2019-03-15T01:05:12.411Z,80.60
2019-03-15T01:06:17.553Z,80.60
2019-03-15T01:07:22.708Z,80.60
2019-03-15T01:08:27.566Z,80.70
2019-03-15T01:09:35.019Z,80.60
2019-03-15T01:10:41.762Z,80.50
2019-03-15T01:11:49.055Z,80.50
2019-03-15T01:12:53.207Z,80.50
2019-03-15T01:13:57.489Z,80.60
2019-03-15T01:15:04.846Z,80.60
2019-03-15T01:16:09.170Z,80.60
2019-03-15T01:17:13.256Z,80.70
2019-03-15T01:18:18.429Z,80.60
2019-03-15T01:19:22.799Z,80.80
2019-03-15T01:20:27.636Z,80.60
2019-03-15T01:21:31.793Z,80.60
2019-03-15T01:22:36.000Z,80.70
2019-03-15T01:23:40.182Z,80.80
2019-03-15T01:24:52.567Z,80.80
2019-03-15T01:25:58.317Z,81.10
2019-03-15T01:27:02.486Z,81.20
2019-03-15T01:28:06.555Z,81.20
2019-03-15T01:29:10.742Z,81.30
2019-03-15T01:30:15.336Z,81.30
2019-03-15T01:31:19.552Z,81.40
2019-03-15T01:32:23.690Z,81.30
2019-03-15T01:33:28.468Z,81.50
2019-03-15T01:34:32.574Z,81.50
2019-03-15T01:35:39.787Z,81.60
2019-03-15T01:36:43.863Z,81.70
2019-03-15T01:37:49.313Z,82.00
2019-03-15T01:38:53.395Z,81.70
2019-03-15T01:39:58.666Z,81.80
2019-03-15T01:41:02.763Z,81.80
2019-03-15T01:42:06.864Z,82.00
2019-03-15T01:43:10.965Z,82.00
2019-03-15T01:44:15.219Z,82.10
2019-03-15T01:45:20.494Z,82.30
2019-03-15T01:46:24.564Z,82.40
2019-03-15T01:47:28.771Z,82.30
2019-03-15T01:48:33.578Z,82.60
2019-03-15T01:49:39.263Z,82.70
2019-03-15T01:50:43.465Z,82.60
2019-03-15T01:51:49.244Z,82.60
2019-03-15T01:52:54.039Z,83.00
2019-03-15T01:53:58.619Z,83.00
2019-03-15T01:55:02.787Z,83.10
2019-03-15T01:56:06.910Z,83.20
2019-03-15T01:57:10.991Z,83.10
2019-03-15T01:58:15.120Z,83.20
2019-03-15T01:59:19.219Z,83.40
2019-03-15T02:00:23.360Z,83.50
2019-03-15T02:01:27.580Z,83.40
2019-03-15T02:02:31.834Z,83.40
2019-03-15T02:03:37.545Z,83.50
2019-03-15T02:04:41.628Z,83.50
2019-03-15T02:05:46.878Z,83.60
2019-03-15T02:06:54.879Z,83.60
2019-03-15T02:07:59.079Z,83.60
2019-03-15T02:09:04.338Z,83.50
2019-03-15T02:10:09.499Z,83.60
2019-03-15T02:11:13.548Z,83.60
2019-03-15T02:12:17.795Z,83.60
2019-03-15T02:13:21.870Z,83.50
2019-03-15T02:14:26.019Z,83.50
2019-03-15T02:15:32.932Z,83.50
2019-03-15T02:16:37.084Z,83.60
2019-03-15T02:17:41.207Z,83.70
2019-03-15T02:18:45.269Z,83.60
2019-03-15T02:19:51.288Z,83.50
2019-03-15T02:20:55.926Z,83.50
2019-03-15T02:22:01.638Z,83.20
2019-03-15T02:23:05.938Z,83.50
2019-03-15T02:24:10.282Z,83.40
2019-03-15T02:25:14.326Z,83.50
2019-03-15T02:26:19.458Z,83.50
2019-03-15T02:27:24.143Z,83.60
2019-03-15T02:28:30.940Z,83.50
2019-03-15T02:29:38.041Z,83.50
2019-03-15T02:30:42.140Z,83.50
2019-03-15T02:31:47.779Z,83.60
2019-03-15T02:32:51.934Z,83.70
2019-03-15T02:33:57.799Z,83.60
2019-03-15T02:35:02.584Z,83.60
2019-03-15T02:36:08.326Z,83.70
2019-03-15T02:37:12.651Z,83.60
2019-03-15T02:38:16.737Z,83.50
2019-03-15T02:39:20.915Z,83.40
2019-03-15T02:40:26.678Z,83.20
2019-03-15T02:41:32.046Z,84.10
2019-03-15T02:42:36.486Z,83.40
2019-03-15T02:43:40.650Z,83.40
2019-03-15T02:44:44.899Z,83.10
2019-03-15T02:45:50.679Z,83.80
2019-03-15T02:46:55.284Z,83.10
2019-03-15T02:47:59.650Z,83.20
2019-03-15T02:49:04.597Z,83.20
2019-03-15T02:50:09.318Z,83.20
2019-03-15T02:51:13.486Z,83.10
2019-03-15T02:52:18.276Z,83.20
2019-03-15T02:53:22.473Z,83.10
2019-03-15T02:54:27.481Z,83.20
2019-03-15T02:55:32.668Z,83.10
2019-03-15T02:56:37.822Z,82.90
2019-03-15T02:57:41.915Z,83.10
2019-03-15T02:58:46.251Z,83.20
2019-03-15T02:59:50.358Z,82.60
2019-03-15T03:00:56.886Z,83.40
2019-03-15T03:02:01.604Z,83.40
2019-03-15T03:03:05.893Z,83.30
2019-03-15T03:04:10.699Z,83.30
2019-03-15T03:05:14.857Z,83.40
2019-03-15T03:06:19.128Z,83.20
2019-03-15T03:07:24.887Z,83.10
2019-03-15T03:08:29.098Z,83.00
2019-03-15T03:09:34.158Z,83.10
2019-03-15T03:10:40.036Z,82.80
2019-03-15T03:11:44.281Z,82.80
2019-03-15T03:12:48.491Z,82.80
2019-03-15T03:13:54.132Z,82.80
2019-03-15T03:14:58.461Z,82.80
2019-03-15T03:16:02.961Z,83.60
2019-03-15T03:17:07.198Z,82.90
2019-03-15T03:18:11.960Z,82.90
2019-03-15T03:19:16.158Z,82.70
2019-03-15T03:20:23.564Z,82.80
2019-03-15T03:21:30.371Z,82.80
2019-03-15T03:22:36.105Z,83.10
2019-03-15T03:23:52.034Z,82.70
2019-03-15T03:25:01.733Z,82.70
2019-03-15T03:26:07.127Z,82.70
2019-03-15T03:27:18.542Z,82.90
2019-03-15T03:28:48.548Z,82.90
2019-03-15T03:29:32.941Z,82.80
2019-03-15T03:30:37.754Z,82.70
2019-03-15T03:31:44.239Z,82.80
2019-03-15T03:32:50.488Z,82.80
2019-03-15T03:33:57.364Z,82.70
2019-03-15T03:35:01.572Z,82.70
2019-03-15T03:36:05.714Z,82.80
2019-03-15T03:37:09.989Z,82.90
2019-03-15T03:38:16.509Z,82.80
2019-03-15T03:39:20.824Z,82.60
2019-03-15T03:40:29.078Z,82.50
2019-03-15T03:41:34.075Z,82.60
2019-03-15T03:42:38.170Z,82.60
2019-03-15T03:43:42.356Z,82.60
2019-03-15T03:44:46.560Z,82.70
2019-03-15T03:45:50.658Z,82.70
2019-03-15T03:46:54.864Z,82.60
2019-03-15T03:47:59.072Z,83.40
2019-03-15T03:49:03.162Z,82.70
2019-03-15T03:50:09.538Z,82.70
2019-03-15T03:51:13.692Z,82.70
2019-03-15T03:52:17.932Z,82.80
2019-03-15T03:53:22.072Z,82.90
2019-03-15T03:54:26.526Z,82.80
2019-03-15T03:55:30.694Z,82.90
2019-03-15T03:56:34.838Z,82.90
2019-03-15T03:57:39.125Z,83.10
2019-03-15T03:58:43.263Z,82.80
2019-03-15T03:59:49.012Z,82.80
2019-03-15T04:00:54.310Z,82.80
2019-03-15T04:01:58.514Z,83.00
2019-03-15T04:03:02.763Z,82.80
2019-03-15T04:04:06.924Z,82.70
2019-03-15T04:05:11.211Z,82.80
2019-03-15T04:06:15.374Z,82.80
2019-03-15T04:07:21.087Z,82.90
2019-03-15T04:08:28.294Z,82.80
2019-03-15T04:09:32.310Z,82.70
2019-03-15T04:10:38.814Z,82.60
2019-03-15T04:11:54.640Z,82.70
2019-03-15T04:12:48.762Z,82.70
2019-03-15T04:13:52.978Z,82.70
2019-03-15T04:15:01.014Z,82.50
2019-03-15T04:16:05.272Z,82.40
2019-03-15T04:17:09.683Z,82.40
2019-03-15T04:18:13.843Z,82.20
2019-03-15T04:19:18.084Z,82.20
2019-03-15T04:20:22.188Z,82.40
2019-03-15T04:21:26.436Z,82.40
2019-03-15T04:22:32.768Z,82.50
2019-03-15T04:23:38.393Z,82.40
2019-03-15T04:24:44.375Z,82.40
2019-03-15T04:25:48.747Z,82.30
2019-03-15T04:26:53.005Z,82.40
2019-03-15T04:27:57.348Z,82.40
2019-03-15T04:29:01.451Z,82.50
2019-03-15T04:30:09.241Z,82.50
2019-03-15T04:31:13.467Z,82.40
2019-03-15T04:32:17.596Z,82.40
2019-03-15T04:33:21.660Z,82.50
2019-03-15T04:34:28.392Z,82.50
2019-03-15T04:35:31.619Z,82.50
2019-03-15T04:36:35.714Z,82.40
2019-03-15T04:37:39.876Z,82.50
2019-03-15T04:38:45.945Z,82.70
2019-03-15T04:39:49.780Z,82.70
2019-03-15T04:40:54.006Z,82.60
2019-03-15T04:41:58.162Z,82.70
2019-03-15T04:43:02.283Z,82.60
2019-03-15T04:44:07.519Z,82.60
2019-03-15T04:45:15.301Z,82.50
2019-03-15T04:46:18.660Z,82.50
2019-03-15T04:47:22.827Z,82.60
2019-03-15T04:48:27.078Z,82.60
2019-03-15T04:49:37.544Z,82.70
2019-03-15T04:50:59.768Z,82.90
2019-03-15T04:52:06.836Z,82.90
2019-03-15T04:53:16.078Z,82.90
2019-03-15T04:54:22.027Z,82.90
2019-03-15T04:55:26.235Z,83.00
2019-03-15T04:56:32.054Z,83.20
2019-03-15T04:57:37.600Z,83.30
2019-03-15T04:58:41.659Z,83.20
2019-03-15T04:59:51.304Z,83.40
2019-03-15T05:00:58.363Z,83.50
2019-03-15T05:02:03.956Z,83.50
2019-03-15T05:03:08.054Z,83.60
2019-03-15T05:04:13.442Z,83.90
2019-03-15T05:05:24.938Z,83.90
2019-03-15T05:06:29.758Z,83.90
2019-03-15T05:07:33.868Z,84.20
2019-03-15T05:08:39.584Z,84.30
2019-03-15T05:09:45.195Z,84.50
2019-03-15T05:10:50.389Z,84.60
2019-03-15T05:11:55.463Z,84.80
2019-03-15T05:13:02.294Z,84.90
2019-03-15T05:14:09.470Z,84.90
2019-03-15T05:15:17.824Z,85.00
2019-03-15T05:16:24.052Z,85.10
2019-03-15T05:17:30.773Z,86.00
2019-03-15T05:18:36.690Z,85.30
2019-03-15T05:19:42.510Z,85.50
2019-03-15T05:20:48.105Z,85.50
2019-03-15T05:21:52.273Z,85.70
2019-03-15T05:22:56.486Z,85.90
2019-03-15T05:24:05.047Z,85.90
2019-03-15T05:25:09.547Z,85.90
2019-03-15T05:26:15.472Z,85.90
2019-03-15T05:27:19.695Z,85.90
2019-03-15T05:28:27.037Z,86.00
2019-03-15T05:29:39.112Z,86.00
2019-03-15T05:30:46.373Z,86.10
2019-03-15T05:31:52.699Z,85.90
2019-03-15T05:32:58.452Z,85.90
2019-03-15T05:34:03.038Z,86.00
2019-03-15T05:35:08.823Z,86.00
2019-03-15T05:36:13.282Z,86.20
2019-03-15T05:37:20.534Z,86.20
2019-03-15T05:38:24.714Z,86.20
2019-03-15T05:39:29.203Z,86.30
2019-03-15T05:40:33.764Z,86.40
2019-03-15T05:41:37.922Z,86.10
2019-03-15T05:42:44.100Z,86.10
2019-03-15T05:43:48.312Z,86.10
2019-03-15T05:44:53.407Z,86.20
2019-03-15T05:45:59.918Z,86.20
2019-03-15T05:47:04.184Z,86.40
2019-03-15T05:48:08.338Z,86.40
2019-03-15T05:49:14.018Z,86.40
2019-03-15T05:50:19.362Z,86.40
2019-03-15T05:51:25.994Z,86.60
2019-03-15T05:52:30.226Z,86.40
2019-03-15T05:53:34.758Z,86.40
2019-03-15T05:54:40.120Z,86.40
2019-03-15T05:55:44.392Z,86.40
2019-03-15T05:56:50.315Z,86.50
2019-03-15T05:57:56.936Z,86.40
2019-03-15T05:59:02.009Z,86.50
2019-03-15T06:00:09.217Z,86.50
2019-03-15T06:01:15.979Z,86.50
2019-03-15T06:02:24.870Z,86.50
2019-03-15T06:03:32.267Z,86.60
2019-03-15T06:04:36.507Z,86.70
2019-03-15T06:05:45.984Z,86.80
2019-03-15T06:06:53.643Z,86.30
2019-03-15T06:07:58.641Z,87.00
2019-03-15T06:09:04.560Z,86.80
2019-03-15T06:10:12.598Z,86.70
2019-03-15T06:11:20.100Z,86.70
2019-03-15T06:12:23.479Z,86.60
2019-03-15T06:13:29.058Z,86.80
2019-03-15T06:14:33.185Z,86.80
2019-03-15T06:15:37.366Z,87.00
2019-03-15T06:16:43.070Z,87.00
2019-03-15T06:17:47.169Z,87.00
2019-03-15T06:18:56.621Z,87.00
2019-03-15T06:20:01.280Z,86.90
2019-03-15T06:21:05.593Z,86.80
2019-03-15T06:22:13.356Z,86.80
2019-03-15T06:23:18.794Z,86.70
2019-03-15T06:24:26.168Z,87.60
2019-03-15T06:25:30.357Z,86.70
2019-03-15T06:26:36.136Z,86.80
2019-03-15T06:27:40.328Z,86.80
2019-03-15T06:28:44.576Z,87.00
2019-03-15T06:29:53.670Z,87.00
2019-03-15T06:30:57.851Z,87.00
2019-03-15T06:32:03.415Z,87.00
2019-03-15T06:33:10.626Z,87.10
2019-03-15T06:34:29.732Z,87.20
2019-03-15T06:35:34.154Z,87.10
2019-03-15T06:36:39.627Z,87.00
2019-03-15T06:37:46.164Z,86.90
2019-03-15T06:39:02.710Z,86.80
2019-03-15T06:40:09.282Z,86.70
2019-03-15T06:41:14.558Z,86.80
2019-03-15T06:42:20.107Z,86.90
2019-03-15T06:43:24.411Z,87.00
2019-03-15T06:44:28.545Z,87.20
2019-03-15T06:45:32.829Z,87.10
2019-03-15T06:46:36.954Z,87.00
2019-03-15T06:47:41.200Z,87.00
2019-03-15T06:48:48.046Z,86.90
2019-03-15T06:49:54.608Z,86.80
2019-03-15T06:51:02.156Z,87.00
2019-03-15T06:52:07.934Z,87.00
2019-03-15T06:53:12.368Z,86.90
2019-03-15T06:54:16.635Z,86.90
2019-03-15T06:55:20.724Z,86.70
2019-03-15T06:56:24.918Z,86.60
2019-03-15T06:57:30.528Z,86.60
2019-03-15T06:58:35.074Z,86.70
2019-03-15T06:59:39.480Z,86.90
2019-03-15T07:00:44.803Z,87.70
2019-03-15T07:01:50.778Z,86.80
2019-03-15T07:02:55.148Z,87.00
2019-03-15T07:04:01.206Z,87.10
2019-03-15T07:05:11.839Z,87.40
2019-03-15T07:06:15.168Z,87.40
2019-03-15T07:07:21.402Z,87.40
2019-03-15T07:08:28.022Z,87.40
2019-03-15T07:09:33.429Z,87.30
2019-03-15T07:10:39.857Z,87.20
2019-03-15T07:11:45.706Z,87.10
2019-03-15T07:12:53.298Z,87.20
2019-03-15T07:13:59.733Z,87.10
2019-03-15T07:15:17.556Z,87.10
2019-03-15T07:16:21.346Z,87.00
2019-03-15T07:17:30.168Z,86.70
2019-03-15T07:18:35.582Z,86.30
2019-03-15T07:19:43.554Z,85.90
2019-03-15T07:20:50.392Z,85.40
2019-03-15T07:21:56.274Z,85.20
2019-03-15T07:23:03.300Z,85.10
2019-03-15T07:24:24.127Z,84.80
2019-03-15T07:25:17.191Z,84.70
2019-03-15T07:26:21.511Z,84.80
2019-03-15T07:27:27.227Z,84.40
2019-03-15T07:28:38.233Z,84.40
2019-03-15T07:29:55.814Z,84.30
2019-03-15T07:30:59.429Z,84.10
2019-03-15T07:32:11.138Z,84.10
2019-03-15T07:33:19.217Z,84.10
2019-03-15T07:34:26.742Z,84.10
2019-03-15T07:35:32.048Z,84.20
2019-03-15T07:36:37.966Z,84.10
2019-03-15T07:37:45.125Z,83.90
2019-03-15T07:38:49.444Z,83.70
2019-03-15T07:39:55.850Z,84.00
2019-03-15T07:41:00.009Z,83.90
2019-03-15T07:42:06.937Z,84.10
2019-03-15T07:43:12.290Z,83.90
2019-03-15T07:44:16.514Z,83.50
2019-03-15T07:45:20.804Z,83.50
2019-03-15T07:46:26.468Z,83.40
2019-03-15T07:47:31.998Z,83.50
2019-03-15T07:48:36.409Z,83.40
2019-03-15T07:49:42.460Z,83.20
2019-03-15T07:50:51.065Z,83.10
2019-03-15T07:51:55.252Z,83.20
2019-03-15T07:53:00.544Z,83.40
2019-03-15T07:54:06.313Z,83.40
2019-03-15T07:55:11.210Z,83.30
2019-03-15T07:56:16.192Z,83.10
2019-03-15T07:57:20.478Z,83.10
2019-03-15T07:58:24.702Z,83.20
2019-03-15T07:59:28.896Z,83.20
2019-03-15T08:00:34.841Z,83.70
2019-03-15T08:01:40.603Z,82.70
2019-03-15T08:02:44.887Z,82.60
2019-03-15T08:03:50.526Z,82.60
2019-03-15T08:04:57.011Z,82.20
2019-03-15T08:06:01.157Z,82.30
2019-03-15T08:07:09.621Z,82.20
2019-03-15T08:08:13.911Z,82.20
2019-03-15T08:09:18.928Z,81.50
2019-03-15T08:10:24.871Z,81.50
2019-03-15T08:11:29.282Z,81.70
2019-03-15T08:12:38.940Z,81.80
2019-03-15T08:13:43.257Z,81.90
2019-03-15T08:14:48.006Z,82.10
2019-03-15T08:15:52.137Z,82.20
2019-03-15T08:16:56.833Z,82.00
2019-03-15T08:18:05.369Z,81.90
2019-03-15T08:19:09.491Z,82.20
2019-03-15T08:20:14.899Z,82.40
2019-03-15T08:21:23.388Z,82.30
2019-03-15T08:22:30.581Z,82.40
2019-03-15T08:23:36.652Z,82.40
2019-03-15T08:24:51.410Z,82.50
2019-03-15T08:25:53.430Z,82.40
2019-03-15T08:27:00.258Z,82.40
2019-03-15T08:28:04.527Z,82.20
2019-03-15T08:29:12.124Z,82.20
2019-03-15T08:30:18.719Z,82.30
2019-03-15T08:31:30.096Z,81.60
2019-03-15T08:32:34.417Z,81.80
2019-03-15T08:33:38.547Z,82.20
2019-03-15T08:34:51.621Z,82.40
2019-03-15T08:35:51.565Z,82.20
2019-03-15T08:36:56.615Z,82.00
2019-03-15T08:38:00.755Z,81.80
2019-03-15T08:39:08.497Z,81.70
2019-03-15T08:40:16.268Z,81.70
2019-03-15T08:41:21.067Z,81.60
2019-03-15T08:42:25.370Z,82.70
2019-03-15T08:43:29.499Z,82.50
2019-03-15T08:44:33.701Z,81.90
2019-03-15T08:45:39.040Z,81.40
2019-03-15T08:46:43.260Z,81.40
2019-03-15T08:47:50.275Z,81.40
2019-03-15T08:48:55.911Z,81.50
2019-03-15T08:50:00.373Z,81.80
2019-03-15T08:51:10.309Z,82.00
2019-03-15T08:52:12.675Z,82.00
2019-03-15T08:53:17.675Z,82.10
2019-03-15T08:54:21.905Z,82.10
2019-03-15T08:55:30.617Z,82.20
2019-03-15T08:56:36.384Z,82.40
2019-03-15T08:57:40.521Z,82.70
2019-03-15T08:58:44.651Z,82.70
2019-03-15T08:59:56.802Z,82.70
2019-03-15T09:00:54.509Z,82.50
2019-03-15T09:01:58.557Z,82.70
2019-03-15T09:03:03.050Z,82.60
2019-03-15T09:04:07.192Z,82.70
2019-03-15T09:05:12.383Z,82.60
2019-03-15T09:06:16.502Z,82.50
2019-03-15T09:07:20.628Z,82.10
2019-03-15T09:08:24.699Z,81.70
2019-03-15T09:09:28.762Z,81.40
2019-03-15T09:10:32.892Z,81.40
2019-03-15T09:11:37.025Z,81.40
2019-03-15T09:12:41.153Z,81.30
2019-03-15T09:13:45.223Z,81.40
2019-03-15T09:14:49.309Z,81.40
2019-03-15T09:15:56.167Z,81.40
2019-03-15T09:17:04.969Z,81.40
2019-03-15T09:18:12.853Z,81.30
2019-03-15T09:19:17.160Z,81.50
2019-03-15T09:20:21.265Z,81.40
2019-03-15T09:21:25.434Z,81.60
2019-03-15T09:22:30.287Z,81.60
2019-03-15T09:23:35.950Z,81.60
2019-03-15T09:24:40.255Z,81.80
2019-03-15T09:25:44.312Z,81.90
2019-03-15T09:26:48.451Z,82.00
2019-03-15T09:27:52.615Z,82.20
2019-03-15T09:28:56.723Z,82.30
2019-03-15T09:30:00.771Z,82.40
2019-03-15T09:31:07.415Z,82.20
2019-03-15T09:32:10.594Z,82.10
2019-03-15T09:33:14.696Z,82.40
2019-03-15T09:34:18.761Z,82.20
2019-03-15T09:35:22.817Z,82.10
2019-03-15T09:36:29.969Z,82.40
2019-03-15T09:37:35.505Z,82.20
2019-03-15T09:38:39.594Z,82.40
2019-03-15T09:39:43.680Z,82.20
2019-03-15T09:40:47.895Z,82.50
2019-03-15T09:41:51.969Z,82.70
2019-03-15T09:42:59.647Z,82.80
2019-03-15T09:44:01.967Z,83.10
2019-03-15T09:45:08.959Z,83.20
2019-03-15T09:46:13.096Z,83.10
2019-03-15T09:47:17.360Z,82.90
2019-03-15T09:48:21.461Z,82.90
2019-03-15T09:49:25.629Z,82.50
2019-03-15T09:50:40.053Z,82.40
2019-03-15T09:51:35.517Z,82.40
2019-03-15T09:52:42.439Z,82.60
2019-03-15T09:53:49.099Z,82.40
2019-03-15T09:54:53.323Z,82.50
2019-03-15T09:55:57.471Z,82.50
2019-03-15T09:57:01.603Z,82.70
2019-03-15T09:58:07.658Z,82.50
2019-03-15T09:59:11.785Z,82.40
2019-03-15T10:00:17.945Z,82.70
2019-03-15T10:01:34.824Z,82.70
2019-03-15T10:02:30.965Z,82.40
2019-03-15T10:03:34.977Z,81.80
2019-03-15T10:04:39.156Z,81.90
2019-03-15T10:05:43.351Z,82.10
2019-03-15T10:06:47.466Z,82.00
2019-03-15T10:07:51.614Z,81.00
2019-03-15T10:08:55.665Z,81.10
2019-03-15T10:10:12.507Z,81.30
2019-03-15T10:11:05.609Z,81.50
2019-03-15T10:12:11.245Z,81.30
2019-03-15T10:13:15.393Z,81.50
2019-03-15T10:14:19.434Z,81.80
2019-03-15T10:15:26.148Z,81.70
2019-03-15T10:16:29.284Z,81.70
2019-03-15T10:17:33.403Z,81.60
2019-03-15T10:18:37.558Z,81.40
2019-03-15T10:19:41.620Z,81.60
2019-03-15T10:20:45.748Z,81.70
2019-03-15T10:21:51.296Z,81.70
2019-03-15T10:23:05.313Z,81.80
2019-03-15T10:24:08.126Z,81.80
2019-03-15T10:25:10.073Z,82.00
2019-03-15T10:26:15.125Z,82.10
2019-03-15T10:27:19.315Z,82.20
2019-03-15T10:28:29.418Z,82.40
2019-03-15T10:29:36.691Z,82.40
2019-03-15T10:30:41.204Z,82.70
2019-03-15T10:31:45.421Z,82.80
2019-03-15T10:32:49.719Z,82.90
2019-03-15T10:33:53.844Z,83.00
2019-03-15T10:34:58.032Z,83.20
2019-03-15T10:36:02.106Z,83.20
2019-03-15T10:37:06.486Z,83.30
2019-03-15T10:38:16.514Z,83.50
2019-03-15T10:39:19.295Z,83.60
2019-03-15T10:40:24.530Z,83.60
2019-03-15T10:41:28.603Z,83.70
2019-03-15T10:42:35.550Z,83.80
2019-03-15T10:43:41.268Z,83.80
2019-03-15T10:44:45.344Z,83.70
2019-03-15T10:45:49.490Z,83.50
2019-03-15T10:46:53.516Z,83.10
2019-03-15T10:47:57.590Z,83.30
2019-03-15T10:49:01.656Z,83.50
2019-03-15T10:50:08.829Z,83.80
2019-03-15T10:51:13.015Z,83.70
2019-03-15T10:52:17.111Z,83.20
2019-03-15T10:53:21.262Z,82.90
2019-03-15T10:54:28.545Z,82.40
2019-03-15T10:55:32.610Z,82.10
2019-03-15T10:56:36.809Z,81.50
2019-03-15T10:57:40.899Z,81.50
2019-03-15T10:58:46.593Z,81.50
2019-03-15T10:59:50.749Z,81.50
2019-03-15T11:00:55.953Z,81.80
2019-03-15T11:02:00.267Z,81.80
2019-03-15T11:03:04.570Z,81.60
2019-03-15T11:04:08.645Z,81.30
2019-03-15T11:05:16.200Z,81.30
2019-03-15T11:06:20.369Z,81.20
2019-03-15T11:07:24.467Z,80.80
2019-03-15T11:08:28.725Z,80.60
2019-03-15T11:09:35.903Z,80.50
2019-03-15T11:10:39.983Z,80.40
2019-03-15T11:11:45.611Z,80.60
2019-03-15T11:12:50.188Z,80.80
2019-03-15T11:13:56.182Z,80.30
2019-03-15T11:15:00.884Z,80.20
2019-03-15T11:16:04.997Z,79.40
2019-03-15T11:17:09.058Z,79.00
2019-03-15T11:18:13.133Z,79.00
2019-03-15T11:19:17.204Z,79.10
2019-03-15T11:20:21.329Z,79.40
2019-03-15T11:21:25.514Z,79.60
2019-03-15T11:22:29.568Z,79.70
2019-03-15T11:23:33.714Z,80.00
2019-03-15T11:24:39.433Z,80.50
2019-03-15T11:25:43.486Z,81.00
2019-03-15T11:26:47.763Z,81.30
2019-03-15T11:27:53.403Z,81.50
2019-03-15T11:28:57.498Z,81.70
2019-03-15T11:30:01.595Z,81.90
2019-03-15T11:31:05.637Z,82.10
2019-03-15T11:32:11.161Z,83.00
2019-03-15T11:33:15.314Z,81.90
2019-03-15T11:34:19.364Z,82.00
2019-03-15T11:35:28.283Z,82.20
2019-03-15T11:36:32.374Z,82.20
2019-03-15T11:37:37.972Z,82.00
2019-03-15T11:38:42.114Z,81.80
2019-03-15T11:39:47.894Z,81.70
2019-03-15T11:40:52.018Z,81.60
2019-03-15T11:41:56.145Z,81.30
2019-03-15T11:43:00.222Z,81.00
2019-03-15T11:44:04.405Z,80.30
2019-03-15T11:45:10.538Z,79.90
2019-03-15T11:46:16.658Z,79.80
2019-03-15T11:47:20.739Z,79.90
2019-03-15T11:48:27.537Z,80.00
2019-03-15T11:49:31.601Z,79.70
2019-03-15T11:50:35.829Z,79.00
2019-03-15T11:51:42.814Z,78.50
2019-03-15T11:52:48.366Z,78.00
2019-03-15T11:53:52.687Z,78.20
2019-03-15T11:54:56.971Z,78.40
2019-03-15T11:56:02.186Z,77.90
2019-03-15T11:57:06.561Z,77.20
2019-03-15T11:58:11.859Z,76.40
2019-03-15T11:59:18.505Z,75.20
2019-03-15T12:00:24.081Z,75.20
2019-03-15T12:01:28.209Z,75.00
2019-03-15T12:02:32.315Z,74.40
2019-03-15T12:03:36.376Z,74.50
2019-03-15T12:04:40.451Z,74.70
2019-03-15T12:05:44.593Z,74.70
2019-03-15T12:06:48.671Z,74.70
2019-03-15T12:07:52.726Z,74.80
2019-03-15T12:08:56.869Z,75.20
2019-03-15T12:10:00.976Z,75.40
2019-03-15T12:11:07.075Z,75.40
2019-03-15T12:12:11.741Z,75.30
2019-03-15T12:13:17.438Z,75.30
2019-03-15T12:14:23.327Z,75.50
2019-03-15T12:15:29.793Z,76.00
2019-03-15T12:16:33.905Z,76.20
2019-03-15T12:17:39.506Z,76.60
2019-03-15T12:18:45.117Z,76.60
2019-03-15T12:19:50.485Z,76.60
2019-03-15T12:20:54.575Z,76.80
2019-03-15T12:22:06.468Z,77.00
2019-03-15T12:23:09.067Z,77.40
2019-03-15T12:24:13.650Z,78.60
2019-03-15T12:25:17.838Z,78.30
2019-03-15T12:26:21.965Z,78.70
2019-03-15T12:27:26.151Z,78.60
2019-03-15T12:28:32.759Z,78.70
2019-03-15T12:29:37.394Z,78.70
2019-03-15T12:30:43.335Z,79.00
2019-03-15T12:31:48.872Z,78.60
2019-03-15T12:32:54.403Z,78.50
2019-03-15T12:33:58.695Z,78.00
2019-03-15T12:35:02.768Z,77.70
2019-03-15T12:36:10.386Z,77.30
2019-03-15T12:37:14.445Z,77.20
2019-03-15T12:38:18.565Z,77.40
2019-03-15T12:39:22.779Z,77.00
2019-03-15T12:40:29.285Z,76.80
2019-03-15T12:41:34.423Z,76.30
2019-03-15T12:42:40.989Z,76.20
2019-03-15T12:43:46.678Z,76.30
2019-03-15T12:44:52.489Z,76.30
2019-03-15T12:45:57.429Z,76.10
2019-03-15T12:47:01.583Z,76.00
2019-03-15T12:48:05.747Z,75.30
2019-03-15T12:49:09.759Z,75.40
2019-03-15T12:50:19.039Z,75.30
2019-03-15T12:51:31.999Z,74.70
2019-03-15T12:52:28.870Z,74.10
2019-03-15T12:53:33.011Z,73.70
2019-03-15T12:54:40.928Z,73.20
2019-03-15T12:55:45.092Z,73.00
2019-03-15T12:56:53.932Z,72.30
2019-03-15T12:57:55.059Z,72.50
2019-03-15T12:58:59.137Z,72.60
2019-03-15T13:00:03.877Z,72.70
2019-03-15T13:01:08.005Z,72.90
2019-03-15T13:02:12.065Z,73.80
2019-03-15T13:03:16.128Z,73.00
2019-03-15T13:04:20.250Z,73.10
2019-03-15T13:05:24.405Z,73.30
2019-03-15T13:06:28.499Z,73.40
2019-03-15T13:07:34.229Z,73.50
2019-03-15T13:08:38.322Z,73.90
2019-03-15T13:09:45.365Z,74.30
2019-03-15T13:10:49.655Z,74.30
2019-03-15T13:11:55.443Z,74.80
2019-03-15T13:12:59.765Z,75.10
2019-03-15T13:14:05.188Z,75.50
2019-03-15T13:15:13.658Z,76.10
2019-03-15T13:16:17.735Z,76.40
2019-03-15T13:17:21.896Z,76.60
2019-03-15T13:18:30.205Z,76.90
2019-03-15T13:19:34.549Z,77.00
2019-03-15T13:20:38.695Z,77.30
2019-03-15T13:21:43.064Z,77.30
2019-03-15T13:22:47.245Z,77.30
2019-03-15T13:23:52.965Z,77.50
2019-03-15T13:24:57.144Z,77.50
2019-03-15T13:26:02.784Z,77.50
2019-03-15T13:27:07.980Z,77.30
2019-03-15T13:28:12.378Z,77.20
2019-03-15T13:29:16.424Z,77.50
2019-03-15T13:30:20.563Z,77.50
2019-03-15T13:31:26.164Z,77.60
2019-03-15T13:32:33.113Z,77.90
2019-03-15T13:33:37.199Z,78.00
2019-03-15T13:34:41.342Z,78.20
2019-03-15T13:35:45.766Z,77.60
2019-03-15T13:36:49.835Z,77.20
2019-03-15T13:37:54.113Z,77.10
2019-03-15T13:38:58.264Z,76.70
2019-03-15T13:40:06.709Z,76.80
2019-03-15T13:41:10.936Z,77.80
2019-03-15T13:42:15.847Z,77.10
2019-03-15T13:43:19.969Z,77.20
2019-03-15T13:44:26.315Z,76.80
2019-03-15T13:45:33.368Z,76.60
2019-03-15T13:46:41.656Z,76.50
2019-03-15T13:47:51.441Z,76.40
2019-03-15T13:49:02.472Z,76.10
2019-03-15T13:50:06.576Z,75.60
2019-03-15T13:51:28.327Z,75.60
2019-03-15T13:52:37.227Z,75.70
2019-03-15T13:53:51.448Z,75.30
2019-03-15T13:54:55.870Z,75.40
2019-03-15T13:56:02.932Z,75.80
2019-03-15T13:57:20.162Z,75.70
2019-03-15T13:58:15.875Z,76.00
2019-03-15T13:59:21.623Z,76.20
2019-03-15T14:00:30.390Z,76.50
2019-03-15T14:01:41.185Z,76.50
2019-03-15T14:02:41.510Z,75.70
2019-03-15T14:03:48.714Z,75.90